Kuper — CFN4618 — position and weather

sailwx.info

Track history (hours):
 
Tides and Currents Weather Stations Pressure Air Temp Water Temp Dewpoint Dewpoint Depression Visibility Wind Speed Wind Dir Waves Ship Positions

Kuper

Last reported at 2017-Nov-19 22:08 UTC. Time now 2017-Nov-20 17:27 UTC.
Position N 48°58' W 123°42'.

Length 50 m; draft 2 m.

Type: Passenger vessel. MMSI: 316009547.

Date/timePositionNaut miles runAvg speedWind from/ knotsBaromVisibWave heightAir tempDewpointWater temp
2017-Nov-19 22:08N 48°58' W 123°42'1 9.4
2017-Nov-19 22:00N 48°57' W 123°42'2 2.4
2017-Nov-19 21:21N 48°58' W 123°41'1 2.4
2017-Nov-19 20:51N 48°58' W 123°40'3 2.4
2017-Nov-19 19:37N 48°56' W 123°43'3 8.5
2017-Nov-19 19:19N 48°58' W 123°41'1 1.5
2017-Nov-19 18:44N 48°58' W 123°40'3 6.6
2017-Nov-19 18:20N 48°56' W 123°42'0 1.2
2017-Nov-19 18:00N 48°56' W 123°43'3 4.5
2017-Nov-19 17:18N 48°59' W 123°41'2 5.0
2017-Nov-19 16:59N 48°57' W 123°42'1 2.4
2017-Nov-19 16:29N 48°56' W 123°42'2 4.1
2017-Nov-19 15:56N 48°58' W 123°41'1 2.3
2017-Nov-19 15:30N 48°57' W 123°41'2 3.6
2017-Nov-19 14:58N 48°56' W 123°43'3 0.4
2017-Nov-19 06:46N 48°59' W 123°41'1 3.3
2017-Nov-19 06:29N 48°58' W 123°40'3 4.0
2017-Nov-19 05:42N 48°56' W 123°43'2 8.8
2017-Nov-19 05:30N 48°57' W 123°42'2 3.0
2017-Nov-19 05:00N 48°58' W 123°40'3 5.7
2017-Nov-19 04:29N 48°56' W 123°42'3 4.7
2017-Nov-19 03:52N 48°58' W 123°40'1 2.1
2017-Nov-19 03:15N 48°58' W 123°42'2 3.3
2017-Nov-19 02:41N 48°56' W 123°42'1 6.4
2017-Nov-19 02:30N 48°57' W 123°41'2 0.8
2017-Nov-19 00:08N 48°58' W 123°40'1 4.0
2017-Nov-18 23:51N 48°57' W 123°41'2 3.6
2017-Nov-18 23:20N 48°56' W 123°43'3 8.3
2017-Nov-18 22:58N 48°58' W 123°40'1 0.5
2017-Nov-18 21:11N 48°59' W 123°41'1 2.6
2017-Nov-18 20:59N 48°58' W 123°41'2 3.5
2017-Nov-18 20:22N 48°56' W 123°42'1 1.4
2017-Nov-18 19:28N 48°57' W 123°42'2 2.7
2017-Nov-18 18:54N 48°58' W 123°40'2 4.1
2017-Nov-18 18:30N 48°57' W 123°41'0 0.4
2017-Nov-18 17:48N 48°57' W 123°41'1 2.9
2017-Nov-18 17:20N 48°58' W 123°41'1 2.7
2017-Nov-18 16:57N 48°58' W 123°42'2 4.6
2017-Nov-18 16:30N 48°56' W 123°43'3 6.4
2017-Nov-18 15:58N 48°59' W 123°41'1 2.9
2017-Nov-18 15:29N 48°57' W 123°40'2 4.9
2017-Nov-18 14:59N 48°56' W 123°43'4 0.4
2017-Nov-18 06:57N 48°59' W 123°41'2 3.7
2017-Nov-18 06:29N 48°57' W 123°41'1 1.9
2017-Nov-18 05:54N 48°57' W 123°42'2 4.9
2017-Nov-18 05:26N 48°59' W 123°41'0 0.1
2017-Nov-18 03:37N 48°59' W 123°41'1 6.0
2017-Nov-18 03:26N 48°58' W 123°41'1 0.8
2017-Nov-18 02:00N 48°59' W 123°41'3 4.4
2017-Nov-18 01:13N 48°56' W 123°43'2 2.0
2017-Nov-18 00:09N 48°57' W 123°41'1 0.6
2017-Nov-17 22:34N 48°58' W 123°41'1 9.0
2017-Nov-17 22:29N 48°57' W 123°42'1 1.6
2017-Nov-17 21:56N 48°56' W 123°42'2 4.1
2017-Nov-17 21:21N 48°59' W 123°41'2 5.4
2017-Nov-17 20:54N 48°57' W 123°42'2 2.5
2017-Nov-17 19:58N 48°58' W 123°40'2 2.5
2017-Nov-17 19:09N 48°57' W 123°42'2 4.9
2017-Nov-17 18:44N 48°59' W 123°41'1 3.8
2017-Nov-17 18:30N 48°58' W 123°40'1 0.7
2017-Nov-17 17:11N 48°59' W 123°41'1 7.6
2017-Nov-17 17:00N 48°58' W 123°42'1 2.7
2017-Nov-17 16:29N 48°56' W 123°42'3 5.2
2017-Nov-17 15:58N 48°59' W 123°41'1 3.0
2017-Nov-17 15:30N 48°57' W 123°41'1 2.1
2017-Nov-17 14:52N 48°56' W 123°42'2 5.9
2017-Nov-17 14:28N 48°58' W 123°40'1 0.1
2017-Nov-17 06:40N 48°59' W 123°41'1 3.0
2017-Nov-17 06:22N 48°58' W 123°40'3 4.7
2017-Nov-17 05:43N 48°56' W 123°43'3 8.6
2017-Nov-17 05:25N 48°58' W 123°41'1 2.4
2017-Nov-17 04:59N 48°58' W 123°40'3 5.7
2017-Nov-17 04:26N 48°56' W 123°43'2 3.4
2017-Nov-17 03:58N 48°57' W 123°41'2 3.4
2017-Nov-17 03:25N 48°59' W 123°41'2 5.4
2017-Nov-17 03:00N 48°57' W 123°42'0 0.9
2017-Nov-17 02:30N 48°56' W 123°42'2 4.2
2017-Nov-17 02:00N 48°58' W 123°40'1 2.8
2017-Nov-17 01:29N 48°57' W 123°42'2 3.5
2017-Nov-17 00:59N 48°56' W 123°43'3 3.8
2017-Nov-17 00:12N 48°58' W 123°40'0 1.6
2017-Nov-16 23:56N 48°58' W 123°40'1 0.7
2017-Nov-16 22:07N 48°57' W 123°42'1 9.3
2017-Nov-16 22:00N 48°56' W 123°42'2 2.8
2017-Nov-16 21:27N 48°58' W 123°42'1 2.1
2017-Nov-16 20:45N 48°58' W 123°40'2 6.6
2017-Nov-16 20:26N 48°57' W 123°42'1 1.6
2017-Nov-16 19:49N 48°56' W 123°43'3 7.4
2017-Nov-16 19:28N 48°58' W 123°41'1 1.9
2017-Nov-16 19:00N 48°58' W 123°40'3 4.1
2017-Nov-16 18:16N 48°56' W 123°43'3 6.1
2017-Nov-16 17:46N 48°58' W 123°40'1 2.1
2017-Nov-16 17:20N 48°59' W 123°41'3 8.5
2017-Nov-16 17:00N 48°56' W 123°42'2 3.2
2017-Nov-16 16:24N 48°58' W 123°41'0 1.2
2017-Nov-16 16:00N 48°58' W 123°41'1 2.6
2017-Nov-16 15:29N 48°57' W 123°41'2 3.4
2017-Nov-16 14:59N 48°56' W 123°43'3 6.9
2017-Nov-16 14:30N 48°58' W 123°40'1 0.1
2017-Nov-16 06:40N 48°59' W 123°41'1 5.2
2017-Nov-16 06:29N 48°58' W 123°40'3 6.4
2017-Nov-16 06:00N 48°56' W 123°43'2 4.1
2017-Nov-16 05:27N 48°58' W 123°42'1 2.8
2017-Nov-16 04:59N 48°58' W 123°40'3 6.0
2017-Nov-16 04:26N 48°56' W 123°43'2 4.1
2017-Nov-16 03:54N 48°57' W 123°40'1 2.1
2017-Nov-16 03:17N 48°59' W 123°41'2 6.7
2017-Nov-16 03:00N 48°57' W 123°42'1 1.4
2017-Nov-16 02:30N 48°56' W 123°42'3 5.3
2017-Nov-16 02:00N 48°58' W 123°40'2 2.9
2017-Nov-16 01:26N 48°57' W 123°42'0 0.7
2017-Nov-16 00:44N 48°57' W 123°42'2 8.2
2017-Nov-16 00:30N 48°59' W 123°41'1 1.8
2017-Nov-15 23:59N 48°58' W 123°40'3 4.3
2017-Nov-15 23:19N 48°56' W 123°42'2 2.2
2017-Nov-15 22:13N 48°58' W 123°41'3 4.2
2017-Nov-15 21:36N 48°56' W 123°42'1 8.4
2017-Nov-15 21:29N 48°57' W 123°42'2 3.3
2017-Nov-15 20:51N 48°58' W 123°40'2 4.8
2017-Nov-15 20:30N 48°57' W 123°41'1 1.9
2017-Nov-15 19:44N 48°56' W 123°43'3 8.4
2017-Nov-15 19:26N 48°58' W 123°41'1 2.1
2017-Nov-15 18:59N 48°58' W 123°40'2 4.5
2017-Nov-15 18:27N 48°56' W 123°42'0 0.6
2017-Nov-15 17:59N 48°56' W 123°42'3 4.3
2017-Nov-15 17:19N 48°59' W 123°41'2 5.1
2017-Nov-15 16:58N 48°57' W 123°42'0 0.4
2017-Nov-15 16:23N 48°57' W 123°42'2 5.3
2017-Nov-15 16:00N 48°59' W 123°41'2 3.1
2017-Nov-15 15:30N 48°57' W 123°41'2 3.7
2017-Nov-15 14:59N 48°56' W 123°43'3 5.8
2017-Nov-15 14:28N 48°58' W 123°40'1 0.1
2017-Nov-15 06:39N 48°59' W 123°41'1 5.3
2017-Nov-15 06:29N 48°58' W 123°40'3 6.8
2017-Nov-15 06:00N 48°56' W 123°43'2 4.3
2017-Nov-15 05:26N 48°58' W 123°42'1 2.8
2017-Nov-15 04:59N 48°58' W 123°40'1 0.9
2017-Nov-15 03:55N 48°57' W 123°40'1 3.0
2017-Nov-15 03:27N 48°59' W 123°41'3 6.5
2017-Nov-15 03:00N 48°56' W 123°43'3 4.1
2017-Nov-15 02:18N 48°58' W 123°40'1 2.0
2017-Nov-15 01:50N 48°59' W 123°41'3 7.7
2017-Nov-15 01:26N 48°56' W 123°43'1 1.7
2017-Nov-15 01:01N 48°57' W 123°42'2 3.7
2017-Nov-15 00:25N 48°58' W 123°40'2 4.6
2017-Nov-15 00:01N 48°57' W 123°41'0 0.6
2017-Nov-14 23:18N 48°57' W 123°41'1 4.2
2017-Nov-14 22:57N 48°58' W 123°40'1 1.8
2017-Nov-14 22:21N 48°58' W 123°41'2 4.8
2017-Nov-14 21:50N 48°56' W 123°43'3 7.7
2017-Nov-14 21:24N 48°59' W 123°41'1 2.2
2017-Nov-14 21:01N 48°58' W 123°40'3 5.1
2017-Nov-14 20:30N 48°56' W 123°42'1 1.0
2017-Nov-14 19:44N 48°56' W 123°43'2 7.6
2017-Nov-14 19:29N 48°57' W 123°42'2 2.8
2017-Nov-14 18:54N 48°58' W 123°40'2 5.0
2017-Nov-14 18:30N 48°57' W 123°41'0 0.3
2017-Nov-14 17:59N 48°57' W 123°42'2 3.6
2017-Nov-14 17:23N 48°59' W 123°41'1 3.7
2017-Nov-14 17:00N 48°57' W 123°42'1 2.5
2017-Nov-14 16:28N 48°56' W 123°43'3 5.9
2017-Nov-14 15:59N 48°59' W 123°41'1 2.7
2017-Nov-14 15:30N 48°58' W 123°40'2 4.3
2017-Nov-14 14:59N 48°56' W 123°43'3 0.4
2017-Nov-14 06:41N 48°59' W 123°41'1 4.5
2017-Nov-14 06:29N 48°58' W 123°40'3 5.0
2017-Nov-14 05:49N 48°56' W 123°43'3 8.0
2017-Nov-14 05:28N 48°58' W 123°41'1 2.2
2017-Nov-14 05:00N 48°58' W 123°40'3 5.3
2017-Nov-14 04:23N 48°56' W 123°43'2 5.6
2017-Nov-14 03:59N 48°57' W 123°40'1 1.7
2017-Nov-14 03:18N 48°58' W 123°41'2 6.9
2017-Nov-14 03:00N 48°56' W 123°42'2 2.2
2017-Nov-14 02:16N 48°57' W 123°40'1 2.1
2017-Nov-14 01:38N 48°59' W 123°41'2 8.2
2017-Nov-14 01:27N 48°57' W 123°42'2 3.2
2017-Nov-14 00:59N 48°56' W 123°43'3 4.0
2017-Nov-14 00:13N 48°58' W 123°40'1 5.3
2017-Nov-13 23:59N 48°57' W 123°40'2 4.3
2017-Nov-13 23:30N 48°56' W 123°43'3 6.5
2017-Nov-13 23:00N 48°58' W 123°40'1 1.6
2017-Nov-13 22:26N 48°59' W 123°41'3 3.9
2017-Nov-13 21:44N 48°56' W 123°42'2 0.1
2017-Nov-13 01:58N 48°58' W 123°40'1 2.7
2017-Nov-13 01:27N 48°57' W 123°42'2 2.8
2017-Nov-13 00:51N 48°56' W 123°43'3 6.7
2017-Nov-13 00:22N 48°59' W 123°41'1 2.9
2017-Nov-12 23:56N 48°58' W 123°40'2 3.9
2017-Nov-12 23:21N 48°56' W 123°43'1 0.7
2017-Nov-12 21:28N 48°57' W 123°42'2 3.3
2017-Nov-12 20:55N 48°58' W 123°40'3 2.3
2017-Nov-12 19:36N 48°56' W 123°43'1 8.9
2017-Nov-12 19:30N 48°57' W 123°42'2 3.6
2017-Nov-12 18:53N 48°58' W 123°40'2 4.6
2017-Nov-12 18:29N 48°57' W 123°41'1 1.7
2017-Nov-12 18:00N 48°56' W 123°42'3 4.5
2017-Nov-12 17:24N 48°59' W 123°41'2 6.1
2017-Nov-12 16:59N 48°57' W 123°42'1 2.2
2017-Nov-12 16:27N 48°58' W 123°42'1 2.7
2017-Nov-12 16:00N 48°58' W 123°40'3 4.8
2017-Nov-12 15:20N 48°56' W 123°43'3 8.3
2017-Nov-12 14:59N 48°58' W 123°40'1 0.1
2017-Nov-12 06:38N 48°58' W 123°41'1 4.1
2017-Nov-12 06:26N 48°58' W 123°40'3 4.7
2017-Nov-12 05:44N 48°56' W 123°43'2 8.5
2017-Nov-12 05:29N 48°58' W 123°42'1 3.0
2017-Nov-12 05:00N 48°58' W 123°40'2 3.0
2017-Nov-12 04:16N 48°57' W 123°42'2 6.6
2017-Nov-12 03:55N 48°58' W 123°40'1 2.7
2017-Nov-12 03:26N 48°58' W 123°42'1 2.0
2017-Nov-12 02:48N 48°56' W 123°42'2 6.9
2017-Nov-12 02:28N 48°58' W 123°40'1 1.5
2017-Nov-12 01:53N 48°58' W 123°41'2 0.4
2017-Nov-11 21:39N 48°57' W 123°42'1 6.3
2017-Nov-11 21:30N 48°58' W 123°42'1 2.7
2017-Nov-11 20:58N 48°58' W 123°40'2 4.4
2017-Nov-11 20:30N 48°57' W 123°42'2 1.5
2017-Nov-11 19:22N 48°58' W 123°41'1 2.0
2017-Nov-11 18:53N 48°58' W 123°40'1 3.0
2017-Nov-11 18:30N 48°57' W 123°41'2 4.0
2017-Nov-11 17:58N 48°56' W 123°43'3 7.2
2017-Nov-11 17:30N 48°58' W 123°40'1 2.0
2017-Nov-11 17:00N 48°58' W 123°41'2 3.8
2017-Nov-11 16:25N 48°56' W 123°42'3 6.5
2017-Nov-11 15:58N 48°59' W 123°41'1 2.8
2017-Nov-11 15:27N 48°57' W 123°40'2 2.9
2017-Nov-11 14:52N 48°56' W 123°42'3 7.2
2017-Nov-11 14:30N 48°58' W 123°40'1 0.1
2017-Nov-11 07:02N 48°59' W 123°41'0 1.5
2017-Nov-11 06:59N 48°59' W 123°41'2 3.6
2017-Nov-11 06:30N 48°57' W 123°41'1 1.7
2017-Nov-11 05:56N 48°57' W 123°42'2 5.3
2017-Nov-11 05:30N 48°59' W 123°41'2 3.6
2017-Nov-11 05:00N 48°57' W 123°41'0 0.8
2017-Nov-11 04:25N 48°57' W 123°42'2 3.9
2017-Nov-11 03:52N 48°59' W 123°41'2 4.8
2017-Nov-11 03:30N 48°57' W 123°42'1 1.0
2017-Nov-11 02:55N 48°57' W 123°41'2 3.3
2017-Nov-11 02:28N 48°58' W 123°41'2 3.4
2017-Nov-11 01:56N 48°57' W 123°42'2 2.1
2017-Nov-11 01:13N 48°58' W 123°41'1 3.3
2017-Nov-11 00:58N 48°59' W 123°41'1 3.3
2017-Nov-11 00:30N 48°57' W 123°40'0 0.1
2017-Nov-10 23:38N 48°57' W 123°40'1 4.4
2017-Nov-10 23:24N 48°58' W 123°40'1 2.1
2017-Nov-10 22:59N 48°59' W 123°41'4 5.7
2017-Nov-10 22:21N 48°56' W 123°43'3 8.3
2017-Nov-10 22:00N 48°58' W 123°40'1 1.2
2017-Nov-10 21:20N 48°58' W 123°41'2 3.8
2017-Nov-10 20:40N 48°56' W 123°42'2 9.2
2017-Nov-10 20:30N 48°57' W 123°41'0 0.8
2017-Nov-10 19:56N 48°57' W 123°41'1 1.1
2017-Nov-10 19:20N 48°57' W 123°42'2 4.0
2017-Nov-10 18:49N 48°59' W 123°41'1 2.5
2017-Nov-10 18:28N 48°58' W 123°40'3 5.5
2017-Nov-10 17:57N 48°56' W 123°42'0 0.4
2017-Nov-10 16:49N 48°56' W 123°42'0 1.0
2017-Nov-10 16:26N 48°56' W 123°42'3 6.4
2017-Nov-10 15:58N 48°59' W 123°41'1 2.5
2017-Nov-10 15:30N 48°58' W 123°40'3 4.3
2017-Nov-10 14:55N 48°56' W 123°43'3 7.3
2017-Nov-10 14:31N 48°58' W 123°40'0 0.0
2017-Nov-10 06:30N 48°58' W 123°40'3 4.6
2017-Nov-10 05:46N 48°56' W 123°43'4 8.0
2017-Nov-10 05:20N 48°59' W 123°41'1 2.5
2017-Nov-10 04:58N 48°58' W 123°40'3 3.4
2017-Nov-10 04:08N 48°56' W 123°42'3 6.8
2017-Nov-10 03:43N 48°58' W 123°40'1 2.0
2017-Nov-10 03:16N 48°59' W 123°41'3 8.2
2017-Nov-10 02:56N 48°56' W 123°42'2 2.8
2017-Nov-10 02:21N 48°57' W 123°40'1 2.2
2017-Nov-10 01:42N 48°59' W 123°41'2 8.6
2017-Nov-10 01:27N 48°57' W 123°42'1 1.9
2017-Nov-10 00:57N 48°56' W 123°43'1 0.3
2017-Nov-09 23:21N 48°56' W 123°42'3 7.2
2017-Nov-09 23:00N 48°58' W 123°40'1 1.7
2017-Nov-09 22:30N 48°58' W 123°41'  
Track history (hours):
 
Tides and Currents Weather Stations Pressure Air Temp Water Temp Dewpoint Dewpoint Depression Visibility Wind Speed Wind Dir Waves Ship Positions

Kuper

Last reported at 2017-Nov-19 22:08 UTC. Time now 2017-Nov-20 17:27 UTC.
Position N 48°58' W 123°42'.

Length 50 m; draft 2 m.

Type: Passenger vessel. MMSI: 316009547.

Date/timePositionNaut miles runAvg speedWind from/ knotsBaromVisibWave heightAir tempDewpointWater temp
2017-Nov-19 22:08N 48°58' W 123°42'1 9.4
2017-Nov-19 22:00N 48°57' W 123°42'2 2.4
2017-Nov-19 21:21N 48°58' W 123°41'1 2.4
2017-Nov-19 20:51N 48°58' W 123°40'3 2.4
2017-Nov-19 19:37N 48°56' W 123°43'3 8.5
2017-Nov-19 19:19N 48°58' W 123°41'1 1.5
2017-Nov-19 18:44N 48°58' W 123°40'3 6.6
2017-Nov-19 18:20N 48°56' W 123°42'0 1.2
2017-Nov-19 18:00N 48°56' W 123°43'3 4.5
2017-Nov-19 17:18N 48°59' W 123°41'2 5.0
2017-Nov-19 16:59N 48°57' W 123°42'1 2.4
2017-Nov-19 16:29N 48°56' W 123°42'2 4.1
2017-Nov-19 15:56N 48°58' W 123°41'1 2.3
2017-Nov-19 15:30N 48°57' W 123°41'2 3.6
2017-Nov-19 14:58N 48°56' W 123°43'3 0.4
2017-Nov-19 06:46N 48°59' W 123°41'1 3.3
2017-Nov-19 06:29N 48°58' W 123°40'3 4.0
2017-Nov-19 05:42N 48°56' W 123°43'2 8.8
2017-Nov-19 05:30N 48°57' W 123°42'2 3.0
2017-Nov-19 05:00N 48°58' W 123°40'3 5.7
2017-Nov-19 04:29N 48°56' W 123°42'3 4.7
2017-Nov-19 03:52N 48°58' W 123°40'1 2.1
2017-Nov-19 03:15N 48°58' W 123°42'2 3.3
2017-Nov-19 02:41N 48°56' W 123°42'1 6.4
2017-Nov-19 02:30N 48°57' W 123°41'2 0.8
2017-Nov-19 00:08N 48°58' W 123°40'1 4.0
2017-Nov-18 23:51N 48°57' W 123°41'2 3.6
2017-Nov-18 23:20N 48°56' W 123°43'3 8.3
2017-Nov-18 22:58N 48°58' W 123°40'1 0.5
2017-Nov-18 21:11N 48°59' W 123°41'1 2.6
2017-Nov-18 20:59N 48°58' W 123°41'2 3.5
2017-Nov-18 20:22N 48°56' W 123°42'1 1.4
2017-Nov-18 19:28N 48°57' W 123°42'2 2.7
2017-Nov-18 18:54N 48°58' W 123°40'2 4.1
2017-Nov-18 18:30N 48°57' W 123°41'0 0.4
2017-Nov-18 17:48N 48°57' W 123°41'1 2.9
2017-Nov-18 17:20N 48°58' W 123°41'1 2.7
2017-Nov-18 16:57N 48°58' W 123°42'2 4.6
2017-Nov-18 16:30N 48°56' W 123°43'3 6.4
2017-Nov-18 15:58N 48°59' W 123°41'1 2.9
2017-Nov-18 15:29N 48°57' W 123°40'2 4.9
2017-Nov-18 14:59N 48°56' W 123°43'4 0.4
2017-Nov-18 06:57N 48°59' W 123°41'2 3.7
2017-Nov-18 06:29N 48°57' W 123°41'1 1.9
2017-Nov-18 05:54N 48°57' W 123°42'2 4.9
2017-Nov-18 05:26N 48°59' W 123°41'0 0.1
2017-Nov-18 03:37N 48°59' W 123°41'1 6.0
2017-Nov-18 03:26N 48°58' W 123°41'1 0.8
2017-Nov-18 02:00N 48°59' W 123°41'3 4.4
2017-Nov-18 01:13N 48°56' W 123°43'2 2.0
2017-Nov-18 00:09N 48°57' W 123°41'1 0.6
2017-Nov-17 22:34N 48°58' W 123°41'1 9.0
2017-Nov-17 22:29N 48°57' W 123°42'1 1.6
2017-Nov-17 21:56N 48°56' W 123°42'2 4.1
2017-Nov-17 21:21N 48°59' W 123°41'2 5.4
2017-Nov-17 20:54N 48°57' W 123°42'2 2.5
2017-Nov-17 19:58N 48°58' W 123°40'2 2.5
2017-Nov-17 19:09N 48°57' W 123°42'2 4.9
2017-Nov-17 18:44N 48°59' W 123°41'1 3.8
2017-Nov-17 18:30N 48°58' W 123°40'1 0.7
2017-Nov-17 17:11N 48°59' W 123°41'1 7.6
2017-Nov-17 17:00N 48°58' W 123°42'1 2.7
2017-Nov-17 16:29N 48°56' W 123°42'3 5.2
2017-Nov-17 15:58N 48°59' W 123°41'1 3.0
2017-Nov-17 15:30N 48°57' W 123°41'1 2.1
2017-Nov-17 14:52N 48°56' W 123°42'2 5.9
2017-Nov-17 14:28N 48°58' W 123°40'1 0.1
2017-Nov-17 06:40N 48°59' W 123°41'1 3.0
2017-Nov-17 06:22N 48°58' W 123°40'3 4.7
2017-Nov-17 05:43N 48°56' W 123°43'3 8.6
2017-Nov-17 05:25N 48°58' W 123°41'1 2.4
2017-Nov-17 04:59N 48°58' W 123°40'3 5.7
2017-Nov-17 04:26N 48°56' W 123°43'2 3.4
2017-Nov-17 03:58N 48°57' W 123°41'2 3.4
2017-Nov-17 03:25N 48°59' W 123°41'2 5.4
2017-Nov-17 03:00N 48°57' W 123°42'0 0.9
2017-Nov-17 02:30N 48°56' W 123°42'2 4.2
2017-Nov-17 02:00N 48°58' W 123°40'1 2.8
2017-Nov-17 01:29N 48°57' W 123°42'2 3.5
2017-Nov-17 00:59N 48°56' W 123°43'3 3.8
2017-Nov-17 00:12N 48°58' W 123°40'0 1.6
2017-Nov-16 23:56N 48°58' W 123°40'1 0.7
2017-Nov-16 22:07N 48°57' W 123°42'1 9.3
2017-Nov-16 22:00N 48°56' W 123°42'2 2.8
2017-Nov-16 21:27N 48°58' W 123°42'1 2.1
2017-Nov-16 20:45N 48°58' W 123°40'2 6.6
2017-Nov-16 20:26N 48°57' W 123°42'1 1.6
2017-Nov-16 19:49N 48°56' W 123°43'3 7.4
2017-Nov-16 19:28N 48°58' W 123°41'1 1.9
2017-Nov-16 19:00N 48°58' W 123°40'3 4.1
2017-Nov-16 18:16N 48°56' W 123°43'3 6.1
2017-Nov-16 17:46N 48°58' W 123°40'1 2.1
2017-Nov-16 17:20N 48°59' W 123°41'3 8.5
2017-Nov-16 17:00N 48°56' W 123°42'2 3.2
2017-Nov-16 16:24N 48°58' W 123°41'0 1.2
2017-Nov-16 16:00N 48°58' W 123°41'1 2.6
2017-Nov-16 15:29N 48°57' W 123°41'2 3.4
2017-Nov-16 14:59N 48°56' W 123°43'3 6.9
2017-Nov-16 14:30N 48°58' W 123°40'1 0.1
2017-Nov-16 06:40N 48°59' W 123°41'1 5.2
2017-Nov-16 06:29N 48°58' W 123°40'3 6.4
2017-Nov-16 06:00N 48°56' W 123°43'2 4.1
2017-Nov-16 05:27N 48°58' W 123°42'1 2.8
2017-Nov-16 04:59N 48°58' W 123°40'3 6.0
2017-Nov-16 04:26N 48°56' W 123°43'2 4.1
2017-Nov-16 03:54N 48°57' W 123°40'1 2.1
2017-Nov-16 03:17N 48°59' W 123°41'2 6.7
2017-Nov-16 03:00N 48°57' W 123°42'1 1.4
2017-Nov-16 02:30N 48°56' W 123°42'3 5.3
2017-Nov-16 02:00N 48°58' W 123°40'2 2.9
2017-Nov-16 01:26N 48°57' W 123°42'0 0.7
2017-Nov-16 00:44N 48°57' W 123°42'2 8.2
2017-Nov-16 00:30N 48°59' W 123°41'1 1.8
2017-Nov-15 23:59N 48°58' W 123°40'3 4.3
2017-Nov-15 23:19N 48°56' W 123°42'2 2.2
2017-Nov-15 22:13N 48°58' W 123°41'3 4.2
2017-Nov-15 21:36N 48°56' W 123°42'1 8.4
2017-Nov-15 21:29N 48°57' W 123°42'2 3.3
2017-Nov-15 20:51N 48°58' W 123°40'2 4.8
2017-Nov-15 20:30N 48°57' W 123°41'1 1.9
2017-Nov-15 19:44N 48°56' W 123°43'3 8.4
2017-Nov-15 19:26N 48°58' W 123°41'1 2.1
2017-Nov-15 18:59N 48°58' W 123°40'2 4.5
2017-Nov-15 18:27N 48°56' W 123°42'0 0.6
2017-Nov-15 17:59N 48°56' W 123°42'3 4.3
2017-Nov-15 17:19N 48°59' W 123°41'2 5.1
2017-Nov-15 16:58N 48°57' W 123°42'0 0.4
2017-Nov-15 16:23N 48°57' W 123°42'2 5.3
2017-Nov-15 16:00N 48°59' W 123°41'2 3.1
2017-Nov-15 15:30N 48°57' W 123°41'2 3.7
2017-Nov-15 14:59N 48°56' W 123°43'3 5.8
2017-Nov-15 14:28N 48°58' W 123°40'1 0.1
2017-Nov-15 06:39N 48°59' W 123°41'1 5.3
2017-Nov-15 06:29N 48°58' W 123°40'3 6.8
2017-Nov-15 06:00N 48°56' W 123°43'2 4.3
2017-Nov-15 05:26N 48°58' W 123°42'1 2.8
2017-Nov-15 04:59N 48°58' W 123°40'1 0.9
2017-Nov-15 03:55N 48°57' W 123°40'1 3.0
2017-Nov-15 03:27N 48°59' W 123°41'3 6.5
2017-Nov-15 03:00N 48°56' W 123°43'3 4.1
2017-Nov-15 02:18N 48°58' W 123°40'1 2.0
2017-Nov-15 01:50N 48°59' W 123°41'3 7.7
2017-Nov-15 01:26N 48°56' W 123°43'1 1.7
2017-Nov-15 01:01N 48°57' W 123°42'2 3.7
2017-Nov-15 00:25N 48°58' W 123°40'2 4.6
2017-Nov-15 00:01N 48°57' W 123°41'0 0.6
2017-Nov-14 23:18N 48°57' W 123°41'1 4.2
2017-Nov-14 22:57N 48°58' W 123°40'1 1.8
2017-Nov-14 22:21N 48°58' W 123°41'2 4.8
2017-Nov-14 21:50N 48°56' W 123°43'3 7.7
2017-Nov-14 21:24N 48°59' W 123°41'1 2.2
2017-Nov-14 21:01N 48°58' W 123°40'3 5.1
2017-Nov-14 20:30N 48°56' W 123°42'1 1.0
2017-Nov-14 19:44N 48°56' W 123°43'2 7.6
2017-Nov-14 19:29N 48°57' W 123°42'2 2.8
2017-Nov-14 18:54N 48°58' W 123°40'2 5.0
2017-Nov-14 18:30N 48°57' W 123°41'0 0.3
2017-Nov-14 17:59N 48°57' W 123°42'2 3.6
2017-Nov-14 17:23N 48°59' W 123°41'1 3.7
2017-Nov-14 17:00N 48°57' W 123°42'1 2.5
2017-Nov-14 16:28N 48°56' W 123°43'3 5.9
2017-Nov-14 15:59N 48°59' W 123°41'1 2.7
2017-Nov-14 15:30N 48°58' W 123°40'2 4.3
2017-Nov-14 14:59N 48°56' W 123°43'3 0.4
2017-Nov-14 06:41N 48°59' W 123°41'1 4.5
2017-Nov-14 06:29N 48°58' W 123°40'3 5.0
2017-Nov-14 05:49N 48°56' W 123°43'3 8.0
2017-Nov-14 05:28N 48°58' W 123°41'1 2.2
2017-Nov-14 05:00N 48°58' W 123°40'3 5.3
2017-Nov-14 04:23N 48°56' W 123°43'2 5.6
2017-Nov-14 03:59N 48°57' W 123°40'1 1.7
2017-Nov-14 03:18N 48°58' W 123°41'2 6.9
2017-Nov-14 03:00N 48°56' W 123°42'2 2.2
2017-Nov-14 02:16N 48°57' W 123°40'1 2.1
2017-Nov-14 01:38N 48°59' W 123°41'2 8.2
2017-Nov-14 01:27N 48°57' W 123°42'2 3.2
2017-Nov-14 00:59N 48°56' W 123°43'3 4.0
2017-Nov-14 00:13N 48°58' W 123°40'1 5.3
2017-Nov-13 23:59N 48°57' W 123°40'2 4.3
2017-Nov-13 23:30N 48°56' W 123°43'3 6.5
2017-Nov-13 23:00N 48°58' W 123°40'1 1.6
2017-Nov-13 22:26N 48°59' W 123°41'3 3.9
2017-Nov-13 21:44N 48°56' W 123°42'2 0.1
2017-Nov-13 01:58N 48°58' W 123°40'1 2.7
2017-Nov-13 01:27N 48°57' W 123°42'2 2.8
2017-Nov-13 00:51N 48°56' W 123°43'3 6.7
2017-Nov-13 00:22N 48°59' W 123°41'1 2.9
2017-Nov-12 23:56N 48°58' W 123°40'2 3.9
2017-Nov-12 23:21N 48°56' W 123°43'1 0.7
2017-Nov-12 21:28N 48°57' W 123°42'2 3.3
2017-Nov-12 20:55N 48°58' W 123°40'3 2.3
2017-Nov-12 19:36N 48°56' W 123°43'1 8.9
2017-Nov-12 19:30N 48°57' W 123°42'2 3.6
2017-Nov-12 18:53N 48°58' W 123°40'2 4.6
2017-Nov-12 18:29N 48°57' W 123°41'1 1.7
2017-Nov-12 18:00N 48°56' W 123°42'3 4.5
2017-Nov-12 17:24N 48°59' W 123°41'2 6.1
2017-Nov-12 16:59N 48°57' W 123°42'1 2.2
2017-Nov-12 16:27N 48°58' W 123°42'1 2.7
2017-Nov-12 16:00N 48°58' W 123°40'3 4.8
2017-Nov-12 15:20N 48°56' W 123°43'3 8.3
2017-Nov-12 14:59N 48°58' W 123°40'1 0.1
2017-Nov-12 06:38N 48°58' W 123°41'1 4.1
2017-Nov-12 06:26N 48°58' W 123°40'3 4.7
2017-Nov-12 05:44N 48°56' W 123°43'2 8.5
2017-Nov-12 05:29N 48°58' W 123°42'1 3.0
2017-Nov-12 05:00N 48°58' W 123°40'2 3.0
2017-Nov-12 04:16N 48°57' W 123°42'2 6.6
2017-Nov-12 03:55N 48°58' W 123°40'1 2.7
2017-Nov-12 03:26N 48°58' W 123°42'1 2.0
2017-Nov-12 02:48N 48°56' W 123°42'2 6.9
2017-Nov-12 02:28N 48°58' W 123°40'1 1.5
2017-Nov-12 01:53N 48°58' W 123°41'2 0.4
2017-Nov-11 21:39N 48°57' W 123°42'1 6.3
2017-Nov-11 21:30N 48°58' W 123°42'1 2.7
2017-Nov-11 20:58N 48°58' W 123°40'2 4.4
2017-Nov-11 20:30N 48°57' W 123°42'2 1.5
2017-Nov-11 19:22N 48°58' W 123°41'1 2.0
2017-Nov-11 18:53N 48°58' W 123°40'1 3.0
2017-Nov-11 18:30N 48°57' W 123°41'2 4.0
2017-Nov-11 17:58N 48°56' W 123°43'3 7.2
2017-Nov-11 17:30N 48°58' W 123°40'1 2.0
2017-Nov-11 17:00N 48°58' W 123°41'2 3.8
2017-Nov-11 16:25N 48°56' W 123°42'3 6.5
2017-Nov-11 15:58N 48°59' W 123°41'1 2.8
2017-Nov-11 15:27N 48°57' W 123°40'2 2.9
2017-Nov-11 14:52N 48°56' W 123°42'3 7.2
2017-Nov-11 14:30N 48°58' W 123°40'1 0.1
2017-Nov-11 07:02N 48°59' W 123°41'0 1.5
2017-Nov-11 06:59N 48°59' W 123°41'2 3.6
2017-Nov-11 06:30N 48°57' W 123°41'1 1.7
2017-Nov-11 05:56N 48°57' W 123°42'2 5.3
2017-Nov-11 05:30N 48°59' W 123°41'2 3.6
2017-Nov-11 05:00N 48°57' W 123°41'0 0.8
2017-Nov-11 04:25N 48°57' W 123°42'2 3.9
2017-Nov-11 03:52N 48°59' W 123°41'2 4.8
2017-Nov-11 03:30N 48°57' W 123°42'1 1.0
2017-Nov-11 02:55N 48°57' W 123°41'2 3.3
2017-Nov-11 02:28N 48°58' W 123°41'2 3.4
2017-Nov-11 01:56N 48°57' W 123°42'2 2.1
2017-Nov-11 01:13N 48°58' W 123°41'1 3.3
2017-Nov-11 00:58N 48°59' W 123°41'1 3.3
2017-Nov-11 00:30N 48°57' W 123°40'0 0.1
2017-Nov-10 23:38N 48°57' W 123°40'1 4.4
2017-Nov-10 23:24N 48°58' W 123°40'1 2.1
2017-Nov-10 22:59N 48°59' W 123°41'4 5.7
2017-Nov-10 22:21N 48°56' W 123°43'3 8.3
2017-Nov-10 22:00N 48°58' W 123°40'1 1.2
2017-Nov-10 21:20N 48°58' W 123°41'2 3.8
2017-Nov-10 20:40N 48°56' W 123°42'2 9.2
2017-Nov-10 20:30N 48°57' W 123°41'0 0.8
2017-Nov-10 19:56N 48°57' W 123°41'1 1.1
2017-Nov-10 19:20N 48°57' W 123°42'2 4.0
2017-Nov-10 18:49N 48°59' W 123°41'1 2.5
2017-Nov-10 18:28N 48°58' W 123°40'3 5.5
2017-Nov-10 17:57N 48°56' W 123°42'0 0.4
2017-Nov-10 16:49N 48°56' W 123°42'0 1.0
2017-Nov-10 16:26N 48°56' W 123°42'3 6.4
2017-Nov-10 15:58N 48°59' W 123°41'1 2.5
2017-Nov-10 15:30N 48°58' W 123°40'3 4.3
2017-Nov-10 14:55N 48°56' W 123°43'3 7.3
2017-Nov-10 14:31N 48°58' W 123°40'0 0.0
2017-Nov-10 06:30N 48°58' W 123°40'3 4.6
2017-Nov-10 05:46N 48°56' W 123°43'4 8.0
2017-Nov-10 05:20N 48°59' W 123°41'1 2.5
2017-Nov-10 04:58N 48°58' W 123°40'3 3.4
2017-Nov-10 04:08N 48°56' W 123°42'3 6.8
2017-Nov-10 03:43N 48°58' W 123°40'1 2.0
2017-Nov-10 03:16N 48°59' W 123°41'3 8.2
2017-Nov-10 02:56N 48°56' W 123°42'2 2.8
2017-Nov-10 02:21N 48°57' W 123°40'1 2.2
2017-Nov-10 01:42N 48°59' W 123°41'2 8.6
2017-Nov-10 01:27N 48°57' W 123°42'1 1.9
2017-Nov-10 00:57N 48°56' W 123°43'1 0.3
2017-Nov-09 23:21N 48°56' W 123°42'3 7.2
2017-Nov-09 23:00N 48°58' W 123°40'1 1.7
2017-Nov-09 22:30N 48°58' W 123°41'  

Dump ship's entire track history